sensor_id;sensor_type;location;lat;lon;timestamp;pressure;altitude;pressure_sealevel;temperature;humidity
79534;BME280;68982;52.160;6.736;2023-05-18T00:00:45;102635.19;;;9.16;60.29
79534;BME280;68982;52.160;6.736;2023-05-18T00:03:11;102644.00;;;9.18;60.78
79534;BME280;68982;52.160;6.736;2023-05-18T00:05:36;102637.75;;;9.58;60.59
79534;BME280;68982;52.160;6.736;2023-05-18T00:08:02;102638.38;;;9.71;59.85
79534;BME280;68982;52.160;6.736;2023-05-18T00:10:28;102632.97;;;9.61;59.05
79534;BME280;68982;52.160;6.736;2023-05-18T00:12:53;102629.13;;;9.54;60.37
79534;BME280;68982;52.160;6.736;2023-05-18T00:15:19;102629.56;;;9.69;58.28
79534;BME280;68982;52.160;6.736;2023-05-18T00:17:44;102632.59;;;9.04;59.52
79534;BME280;68982;52.160;6.736;2023-05-18T00:20:10;102637.25;;;9.23;61.21
79534;BME280;68982;52.160;6.736;2023-05-18T00:22:35;102642.25;;;8.76;60.50
79534;BME280;68982;52.160;6.736;2023-05-18T00:25:03;102640.19;;;9.20;62.28
79534;BME280;68982;52.160;6.736;2023-05-18T00:27:28;102641.19;;;9.19;61.74
79534;BME280;68982;52.160;6.736;2023-05-18T00:29:54;102640.72;;;8.83;61.62
79534;BME280;68982;52.160;6.736;2023-05-18T00:32:19;102642.03;;;8.68;60.92
79534;BME280;68982;52.160;6.736;2023-05-18T00:34:45;102637.97;;;8.53;61.30
79534;BME280;68982;52.160;6.736;2023-05-18T00:37:10;102646.19;;;8.40;62.24
79534;BME280;68982;52.160;6.736;2023-05-18T00:39:35;102636.66;;;8.47;62.35
79534;BME280;68982;52.160;6.736;2023-05-18T00:42:01;102639.41;;;8.78;62.75
79534;BME280;68982;52.160;6.736;2023-05-18T00:44:26;102641.94;;;8.37;62.33
79534;BME280;68982;52.160;6.736;2023-05-18T00:46:52;102633.31;;;8.76;62.59
79534;BME280;68982;52.160;6.736;2023-05-18T00:49:17;102636.03;;;9.06;61.22
79534;BME280;68982;52.160;6.736;2023-05-18T00:51:44;102631.25;;;8.89;61.11
79534;BME280;68982;52.160;6.736;2023-05-18T00:54:09;102642.06;;;8.36;61.96
79534;BME280;68982;52.160;6.736;2023-05-18T00:56:36;102636.88;;;8.76;62.87
79534;BME280;68982;52.160;6.736;2023-05-18T00:59:05;102635.66;;;8.69;61.95
79534;BME280;68982;52.160;6.736;2023-05-18T01:01:32;102643.47;;;8.51;62.74
79534;BME280;68982;52.160;6.736;2023-05-18T01:04:01;102639.47;;;8.66;63.76
79534;BME280;68982;52.160;6.736;2023-05-18T01:06:29;102638.31;;;8.59;62.35
79534;BME280;68982;52.160;6.736;2023-05-18T01:09:00;102638.88;;;8.42;62.34
79534;BME280;68982;52.160;6.736;2023-05-18T01:13:59;102647.16;;;8.50;62.92
79534;BME280;68982;52.160;6.736;2023-05-18T01:16:27;102640.34;;;8.46;63.06
79534;BME280;68982;52.160;6.736;2023-05-18T01:22:06;102647.31;;;8.69;62.62
79534;BME280;68982;52.160;6.736;2023-05-18T01:24:51;102648.00;;;8.92;62.71
79534;BME280;68982;52.160;6.736;2023-05-18T01:27:20;102647.59;;;8.97;63.32
79534;BME280;68982;52.160;6.736;2023-05-18T01:29:48;102649.84;;;8.71;61.38
79534;BME280;68982;52.160;6.736;2023-05-18T01:32:18;102645.91;;;8.96;60.53
79534;BME280;68982;52.160;6.736;2023-05-18T01:34:44;102644.72;;;8.68;62.77
79534;BME280;68982;52.160;6.736;2023-05-18T01:37:10;102648.41;;;8.88;63.37
79534;BME280;68982;52.160;6.736;2023-05-18T01:39:35;102641.44;;;8.64;60.76
79534;BME280;68982;52.160;6.736;2023-05-18T01:42:04;102646.34;;;9.01;63.32
79534;BME280;68982;52.160;6.736;2023-05-18T01:44:47;102647.25;;;8.27;61.80
79534;BME280;68982;52.160;6.736;2023-05-18T01:47:15;102645.19;;;7.87;63.59
79534;BME280;68982;52.160;6.736;2023-05-18T01:52:47;102654.59;;;8.25;62.94
79534;BME280;68982;52.160;6.736;2023-05-18T01:55:17;102655.25;;;8.39;62.79
79534;BME280;68982;52.160;6.736;2023-05-18T01:57:45;102632.41;;;8.12;64.15
79534;BME280;68982;52.160;6.736;2023-05-18T02:00:13;102660.06;;;8.24;62.09
79534;BME280;68982;52.160;6.736;2023-05-18T02:02:40;102652.72;;;8.05;64.10
79534;BME280;68982;52.160;6.736;2023-05-18T02:05:06;102660.13;;;8.13;64.31
79534;BME280;68982;52.160;6.736;2023-05-18T02:07:36;102660.69;;;8.27;63.78
79534;BME280;68982;52.160;6.736;2023-05-18T02:10:02;102657.06;;;8.17;63.53
79534;BME280;68982;52.160;6.736;2023-05-18T02:12:27;102645.72;;;8.02;62.43
79534;BME280;68982;52.160;6.736;2023-05-18T02:14:52;102658.19;;;8.03;64.01
79534;BME280;68982;52.160;6.736;2023-05-18T02:17:19;102660.72;;;8.16;65.19
79534;BME280;68982;52.160;6.736;2023-05-18T02:19:46;102671.94;;;8.21;63.07
79534;BME280;68982;52.160;6.736;2023-05-18T02:22:11;102669.38;;;8.20;63.56
79534;BME280;68982;52.160;6.736;2023-05-18T02:24:36;102666.16;;;7.94;63.28
79534;BME280;68982;52.160;6.736;2023-05-18T02:27:02;102664.28;;;8.38;65.08
79534;BME280;68982;52.160;6.736;2023-05-18T02:29:27;102662.22;;;7.98;62.77
79534;BME280;68982;52.160;6.736;2023-05-18T02:31:52;102657.91;;;7.85;63.12
79534;BME280;68982;52.160;6.736;2023-05-18T02:34:18;102659.59;;;7.86;64.80
79534;BME280;68982;52.160;6.736;2023-05-18T02:36:45;102659.44;;;8.43;64.44
79534;BME280;68982;52.160;6.736;2023-05-18T02:39:13;102657.59;;;8.32;62.27
79534;BME280;68982;52.160;6.736;2023-05-18T02:41:38;102651.69;;;7.85;64.24
79534;BME280;68982;52.160;6.736;2023-05-18T02:44:04;102657.16;;;7.83;63.90
79534;BME280;68982;52.160;6.736;2023-05-18T02:46:30;102654.22;;;7.86;63.81
79534;BME280;68982;52.160;6.736;2023-05-18T02:48:56;102655.94;;;8.20;64.17
79534;BME280;68982;52.160;6.736;2023-05-18T02:51:22;102656.06;;;7.86;63.91
79534;BME280;68982;52.160;6.736;2023-05-18T02:53:48;102653.34;;;8.29;63.31
79534;BME280;68982;52.160;6.736;2023-05-18T02:56:13;102647.91;;;8.08;63.44
79534;BME280;68982;52.160;6.736;2023-05-18T02:58:38;102647.66;;;7.79;64.09
79534;BME280;68982;52.160;6.736;2023-05-18T03:01:04;102639.59;;;7.79;64.40
79534;BME280;68982;52.160;6.736;2023-05-18T03:03:32;102649.50;;;7.67;66.24
79534;BME280;68982;52.160;6.736;2023-05-18T03:06:01;102657.19;;;7.72;65.19
79534;BME280;68982;52.160;6.736;2023-05-18T03:08:27;102659.19;;;7.91;65.39
79534;BME280;68982;52.160;6.736;2023-05-18T03:10:53;102650.34;;;7.68;63.27
79534;BME280;68982;52.160;6.736;2023-05-18T03:13:18;102643.16;;;8.12;64.29
79534;BME280;68982;52.160;6.736;2023-05-18T03:15:44;102654.72;;;7.69;64.16
79534;BME280;68982;52.160;6.736;2023-05-18T03:18:13;102650.63;;;7.31;65.93
79534;BME280;68982;52.160;6.736;2023-05-18T03:20:38;102647.84;;;7.10;65.28
79534;BME280;68982;52.160;6.736;2023-05-18T03:23:04;102647.22;;;7.18;66.59
79534;BME280;68982;52.160;6.736;2023-05-18T03:25:30;102647.59;;;7.47;65.83
79534;BME280;68982;52.160;6.736;2023-05-18T03:27:57;102649.19;;;7.50;65.32
79534;BME280;68982;52.160;6.736;2023-05-18T03:30:22;102649.69;;;7.21;64.84
79534;BME280;68982;52.160;6.736;2023-05-18T03:32:48;102648.09;;;7.41;65.56
79534;BME280;68982;52.160;6.736;2023-05-18T03:35:13;102651.75;;;7.17;64.97
79534;BME280;68982;52.160;6.736;2023-05-18T03:37:40;102644.31;;;6.98;66.14
79534;BME280;68982;52.160;6.736;2023-05-18T03:40:13;102652.34;;;6.98;67.01
79534;BME280;68982;52.160;6.736;2023-05-18T03:42:39;102642.81;;;6.72;66.54
79534;BME280;68982;52.160;6.736;2023-05-18T03:45:06;102651.38;;;6.99;67.28
79534;BME280;68982;52.160;6.736;2023-05-18T03:47:32;102650.88;;;7.17;65.74
79534;BME280;68982;52.160;6.736;2023-05-18T03:49:58;102647.09;;;7.08;66.42
79534;BME280;68982;52.160;6.736;2023-05-18T03:52:23;102657.31;;;7.71;66.79
79534;BME280;68982;52.160;6.736;2023-05-18T03:54:49;102656.47;;;7.59;64.55
79534;BME280;68982;52.160;6.736;2023-05-18T03:57:18;102654.78;;;7.35;65.52
79534;BME280;68982;52.160;6.736;2023-05-18T03:59:44;102659.66;;;7.41;65.39
79534;BME280;68982;52.160;6.736;2023-05-18T04:02:10;102655.38;;;7.61;64.24
79534;BME280;68982;52.160;6.736;2023-05-18T04:04:36;102649.06;;;7.29;65.16
79534;BME280;68982;52.160;6.736;2023-05-18T04:07:02;102659.41;;;7.67;64.90
79534;BME280;68982;52.160;6.736;2023-05-18T04:09:30;102665.66;;;7.34;64.78
79534;BME280;68982;52.160;6.736;2023-05-18T04:11:55;102661.34;;;6.86;68.10
79534;BME280;68982;52.160;6.736;2023-05-18T04:14:20;102660.75;;;7.61;65.75
79534;BME280;68982;52.160;6.736;2023-05-18T04:16:49;102671.56;;;7.82;66.44
79534;BME280;68982;52.160;6.736;2023-05-18T04:19:15;102667.09;;;7.49;65.58
79534;BME280;68982;52.160;6.736;2023-05-18T04:21:40;102663.56;;;7.26;65.80
79534;BME280;68982;52.160;6.736;2023-05-18T04:24:07;102664.41;;;7.15;65.24
79534;BME280;68982;52.160;6.736;2023-05-18T04:26:33;102665.88;;;7.42;65.08
79534;BME280;68982;52.160;6.736;2023-05-18T04:29:00;102679.69;;;8.03;65.28
79534;BME280;68982;52.160;6.736;2023-05-18T04:31:26;102670.84;;;7.80;62.67
79534;BME280;68982;52.160;6.736;2023-05-18T04:33:52;102670.78;;;7.37;65.52
79534;BME280;68982;52.160;6.736;2023-05-18T04:36:17;102648.47;;;7.25;65.40
79534;BME280;68982;52.160;6.736;2023-05-18T04:38:44;102685.94;;;7.93;66.65
79534;BME280;68982;52.160;6.736;2023-05-18T04:41:10;102684.06;;;8.04;64.70
79534;BME280;68982;52.160;6.736;2023-05-18T04:43:35;102675.50;;;7.78;64.17
79534;BME280;68982;52.160;6.736;2023-05-18T04:46:01;102693.47;;;8.10;65.20
79534;BME280;68982;52.160;6.736;2023-05-18T04:48:26;102694.94;;;8.14;61.84
79534;BME280;68982;52.160;6.736;2023-05-18T04:50:53;102692.97;;;8.16;64.20
79534;BME280;68982;52.160;6.736;2023-05-18T04:53:20;102698.81;;;8.21;62.17
79534;BME280;68982;52.160;6.736;2023-05-18T04:55:48;102701.78;;;8.07;63.91
79534;BME280;68982;52.160;6.736;2023-05-18T04:58:14;102701.59;;;7.87;64.02
79534;BME280;68982;52.160;6.736;2023-05-18T05:00:40;102706.09;;;8.30;63.32
79534;BME280;68982;52.160;6.736;2023-05-18T05:03:06;102705.53;;;8.59;62.77
79534;BME280;68982;52.160;6.736;2023-05-18T05:05:31;102701.06;;;8.48;61.73
79534;BME280;68982;52.160;6.736;2023-05-18T05:07:56;102713.81;;;8.24;61.89
79534;BME280;68982;52.160;6.736;2023-05-18T05:10:22;102701.78;;;8.18;63.01
79534;BME280;68982;52.160;6.736;2023-05-18T05:12:49;102706.91;;;8.10;64.52
79534;BME280;68982;52.160;6.736;2023-05-18T05:15:15;102704.84;;;8.46;63.47
79534;BME280;68982;52.160;6.736;2023-05-18T05:17:40;102708.19;;;8.38;62.79
79534;BME280;68982;52.160;6.736;2023-05-18T05:20:06;102711.19;;;8.56;63.05
79534;BME280;68982;52.160;6.736;2023-05-18T05:22:32;102713.31;;;8.41;61.50
79534;BME280;68982;52.160;6.736;2023-05-18T05:24:57;102717.31;;;8.47;62.16
79534;BME280;68982;52.160;6.736;2023-05-18T05:27:22;102694.44;;;8.09;62.77
79534;BME280;68982;52.160;6.736;2023-05-18T05:29:50;102709.44;;;8.23;61.53
79534;BME280;68982;52.160;6.736;2023-05-18T05:32:16;102702.34;;;8.22;62.29
79534;BME280;68982;52.160;6.736;2023-05-18T05:34:41;102710.22;;;8.78;61.77
79534;BME280;68982;52.160;6.736;2023-05-18T05:37:12;102724.97;;;8.84;61.53
79534;BME280;68982;52.160;6.736;2023-05-18T05:39:38;102703.31;;;8.85;60.87
79534;BME280;68982;52.160;6.736;2023-05-18T05:42:05;102718.53;;;8.75;60.25
79534;BME280;68982;52.160;6.736;2023-05-18T05:44:30;102709.09;;;8.81;61.19
79534;BME280;68982;52.160;6.736;2023-05-18T05:46:55;102700.81;;;8.93;60.82
79534;BME280;68982;52.160;6.736;2023-05-18T05:49:20;102721.16;;;9.07;60.76
79534;BME280;68982;52.160;6.736;2023-05-18T05:51:46;102714.38;;;9.13;61.25
79534;BME280;68982;52.160;6.736;2023-05-18T05:54:11;102716.19;;;9.03;60.40
79534;BME280;68982;52.160;6.736;2023-05-18T05:56:36;102716.63;;;9.08;61.22
79534;BME280;68982;52.160;6.736;2023-05-18T05:59:02;102713.47;;;9.24;59.41
79534;BME280;68982;52.160;6.736;2023-05-18T06:01:27;102714.91;;;9.28;60.63
79534;BME280;68982;52.160;6.736;2023-05-18T06:03:53;102715.09;;;9.36;60.35
79534;BME280;68982;52.160;6.736;2023-05-18T06:06:18;102709.72;;;9.36;59.20
79534;BME280;68982;52.160;6.736;2023-05-18T06:08:43;102708.16;;;9.43;58.25
79534;BME280;68982;52.160;6.736;2023-05-18T06:11:09;102710.66;;;9.35;59.85
79534;BME280;68982;52.160;6.736;2023-05-18T06:13:35;102712.34;;;9.57;57.80
79534;BME280;68982;52.160;6.736;2023-05-18T06:16:00;102710.63;;;9.56;55.96
79534;BME280;68982;52.160;6.736;2023-05-18T06:18:25;102703.03;;;9.40;56.32
79534;BME280;68982;52.160;6.736;2023-05-18T06:20:51;102712.22;;;9.68;58.56
79534;BME280;68982;52.160;6.736;2023-05-18T06:23:16;102706.47;;;9.83;57.96
79534;BME280;68982;52.160;6.736;2023-05-18T06:25:50;102704.44;;;9.75;56.85
79534;BME280;68982;52.160;6.736;2023-05-18T06:28:16;102723.94;;;9.27;57.27
79534;BME280;68982;52.160;6.736;2023-05-18T06:30:42;102713.16;;;9.48;57.89
79534;BME280;68982;52.160;6.736;2023-05-18T06:33:07;102713.28;;;9.46;57.51
79534;BME280;68982;52.160;6.736;2023-05-18T06:35:33;102716.41;;;9.51;55.94
79534;BME280;68982;52.160;6.736;2023-05-18T06:37:58;102708.94;;;9.65;55.20
79534;BME280;68982;52.160;6.736;2023-05-18T06:40:24;102705.94;;;9.58;55.79
79534;BME280;68982;52.160;6.736;2023-05-18T06:42:49;102712.50;;;9.65;55.71
79534;BME280;68982;52.160;6.736;2023-05-18T06:45:15;102716.47;;;9.61;55.09
79534;BME280;68982;52.160;6.736;2023-05-18T06:47:41;102720.81;;;9.52;54.96
79534;BME280;68982;52.160;6.736;2023-05-18T06:50:07;102726.59;;;9.79;54.96
79534;BME280;68982;52.160;6.736;2023-05-18T06:52:33;102731.56;;;9.83;54.50
79534;BME280;68982;52.160;6.736;2023-05-18T06:54:58;102721.66;;;9.93;54.75
79534;BME280;68982;52.160;6.736;2023-05-18T06:57:25;102723.91;;;9.88;54.60
79534;BME280;68982;52.160;6.736;2023-05-18T06:59:50;102720.63;;;9.75;53.94
79534;BME280;68982;52.160;6.736;2023-05-18T07:02:18;102726.19;;;9.83;53.14
79534;BME280;68982;52.160;6.736;2023-05-18T07:04:44;102732.13;;;9.87;52.70
79534;BME280;68982;52.160;6.736;2023-05-18T07:07:09;102728.06;;;10.02;54.41
79534;BME280;68982;52.160;6.736;2023-05-18T07:09:35;102726.38;;;10.11;54.86
79534;BME280;68982;52.160;6.736;2023-05-18T07:12:01;102722.25;;;10.07;54.36
79534;BME280;68982;52.160;6.736;2023-05-18T07:14:26;102719.84;;;10.04;53.52
79534;BME280;68982;52.160;6.736;2023-05-18T07:16:51;102716.44;;;10.02;54.29
79534;BME280;68982;52.160;6.736;2023-05-18T07:19:17;102713.13;;;9.88;54.54
79534;BME280;68982;52.160;6.736;2023-05-18T07:21:42;102722.22;;;9.97;52.24
79534;BME280;68982;52.160;6.736;2023-05-18T07:24:08;102735.16;;;10.13;54.67
79534;BME280;68982;52.160;6.736;2023-05-18T07:26:33;102731.69;;;10.42;55.64
79534;BME280;68982;52.160;6.736;2023-05-18T07:28:59;102737.81;;;10.44;53.96
79534;BME280;68982;52.160;6.736;2023-05-18T07:31:25;102731.97;;;10.29;52.70
79534;BME280;68982;52.160;6.736;2023-05-18T07:33:51;102734.78;;;10.27;52.52
79534;BME280;68982;52.160;6.736;2023-05-18T07:36:16;102731.50;;;10.24;51.80
79534;BME280;68982;52.160;6.736;2023-05-18T07:38:41;102728.28;;;10.69;54.50
79534;BME280;68982;52.160;6.736;2023-05-18T07:41:07;102728.44;;;10.67;52.00
79534;BME280;68982;52.160;6.736;2023-05-18T07:43:32;102732.69;;;10.70;51.96
79534;BME280;68982;52.160;6.736;2023-05-18T07:45:57;102723.88;;;10.58;51.24
79534;BME280;68982;52.160;6.736;2023-05-18T07:48:23;102743.75;;;10.67;50.85
79534;BME280;68982;52.160;6.736;2023-05-18T07:50:48;102736.25;;;10.61;52.23
79534;BME280;68982;52.160;6.736;2023-05-18T07:53:13;102747.19;;;10.78;51.96
79534;BME280;68982;52.160;6.736;2023-05-18T07:55:39;102746.44;;;10.67;51.20
79534;BME280;68982;52.160;6.736;2023-05-18T07:58:06;102757.13;;;10.68;50.93
79534;BME280;68982;52.160;6.736;2023-05-18T08:00:33;102752.84;;;10.56;50.80
79534;BME280;68982;52.160;6.736;2023-05-18T08:02:58;102752.00;;;10.55;52.25
79534;BME280;68982;52.160;6.736;2023-05-18T08:05:25;102745.59;;;10.47;51.59
79534;BME280;68982;52.160;6.736;2023-05-18T08:07:50;102752.84;;;10.66;52.28
79534;BME280;68982;52.160;6.736;2023-05-18T08:10:16;102753.97;;;10.53;51.40
79534;BME280;68982;52.160;6.736;2023-05-18T08:12:41;102750.44;;;10.72;49.45
79534;BME280;68982;52.160;6.736;2023-05-18T08:15:07;102754.41;;;10.88;51.74
79534;BME280;68982;52.160;6.736;2023-05-18T08:17:33;102755.22;;;10.98;51.84
79534;BME280;68982;52.160;6.736;2023-05-18T08:19:58;102756.25;;;10.77;49.83
79534;BME280;68982;52.160;6.736;2023-05-18T08:22:23;102754.00;;;10.73;50.94
79534;BME280;68982;52.160;6.736;2023-05-18T08:24:49;102762.06;;;11.02;50.75
79534;BME280;68982;52.160;6.736;2023-05-18T08:27:14;102762.31;;;11.18;50.93
79534;BME280;68982;52.160;6.736;2023-05-18T08:29:40;102759.53;;;11.48;49.93
79534;BME280;68982;52.160;6.736;2023-05-18T08:32:06;102760.66;;;11.55;47.81
79534;BME280;68982;52.160;6.736;2023-05-18T08:34:32;102749.63;;;11.38;49.84
79534;BME280;68982;52.160;6.736;2023-05-18T08:36:57;102749.59;;;11.48;48.61
79534;BME280;68982;52.160;6.736;2023-05-18T08:39:24;102751.97;;;11.04;49.43
79534;BME280;68982;52.160;6.736;2023-05-18T08:42:01;102755.91;;;11.19;49.10
79534;BME280;68982;52.160;6.736;2023-05-18T08:44:45;102744.75;;;11.42;48.34
79534;BME280;68982;52.160;6.736;2023-05-18T08:47:15;102742.50;;;11.47;49.40
79534;BME280;68982;52.160;6.736;2023-05-18T08:49:41;102749.97;;;11.63;47.53
79534;BME280;68982;52.160;6.736;2023-05-18T08:52:08;102749.84;;;11.55;48.91
79534;BME280;68982;52.160;6.736;2023-05-18T08:54:36;102741.34;;;11.40;47.16
79534;BME280;68982;52.160;6.736;2023-05-18T08:57:03;102744.53;;;11.26;47.48
79534;BME280;68982;52.160;6.736;2023-05-18T08:59:32;102745.06;;;11.39;49.06
79534;BME280;68982;52.160;6.736;2023-05-18T09:02:00;102743.97;;;11.22;48.68
79534;BME280;68982;52.160;6.736;2023-05-18T09:04:26;102741.84;;;11.26;49.19
79534;BME280;68982;52.160;6.736;2023-05-18T09:06:53;102736.97;;;11.29;47.05
79534;BME280;68982;52.160;6.736;2023-05-18T09:09:18;102736.03;;;11.58;50.41
79534;BME280;68982;52.160;6.736;2023-05-18T09:11:46;102735.75;;;11.51;49.36
79534;BME280;68982;52.160;6.736;2023-05-18T09:14:12;102741.09;;;11.71;49.17
79534;BME280;68982;52.160;6.736;2023-05-18T09:16:37;102721.78;;;11.66;47.96
79534;BME280;68982;52.160;6.736;2023-05-18T09:19:02;102729.31;;;11.62;47.81
79534;BME280;68982;52.160;6.736;2023-05-18T09:21:30;102727.31;;;11.64;48.84
79534;BME280;68982;52.160;6.736;2023-05-18T09:23:56;102723.97;;;11.52;48.79
79534;BME280;68982;52.160;6.736;2023-05-18T09:26:21;102732.59;;;11.66;46.77
79534;BME280;68982;52.160;6.736;2023-05-18T09:28:51;102711.44;;;11.61;47.54
79534;BME280;68982;52.160;6.736;2023-05-18T09:31:17;102708.06;;;11.77;48.53
79534;BME280;68982;52.160;6.736;2023-05-18T09:33:44;102710.94;;;12.03;46.08
79534;BME280;68982;52.160;6.736;2023-05-18T09:36:10;102710.19;;;11.83;47.47
79534;BME280;68982;52.160;6.736;2023-05-18T09:38:44;102709.25;;;11.65;46.64
79534;BME280;68982;52.160;6.736;2023-05-18T09:41:15;102714.88;;;11.81;48.33
79534;BME280;68982;52.160;6.736;2023-05-18T09:43:41;102720.75;;;12.22;46.27
79534;BME280;68982;52.160;6.736;2023-05-18T09:46:09;102710.19;;;12.29;46.66
79534;BME280;68982;52.160;6.736;2023-05-18T09:48:36;102707.56;;;12.37;45.04
79534;BME280;68982;52.160;6.736;2023-05-18T09:51:04;102715.72;;;12.27;45.97
79534;BME280;68982;52.160;6.736;2023-05-18T09:53:31;102714.59;;;12.30;44.82
79534;BME280;68982;52.160;6.736;2023-05-18T09:56:03;102711.00;;;12.11;44.99
79534;BME280;68982;52.160;6.736;2023-05-18T09:58:36;102703.63;;;11.86;44.95
79534;BME280;68982;52.160;6.736;2023-05-18T10:01:03;102701.88;;;11.94;45.53
79534;BME280;68982;52.160;6.736;2023-05-18T10:03:36;102697.94;;;12.07;45.32
79534;BME280;68982;52.160;6.736;2023-05-18T10:08:32;102709.56;;;12.53;44.06
79534;BME280;68982;52.160;6.736;2023-05-18T10:10:58;102679.78;;;12.53;44.62
79534;BME280;68982;52.160;6.736;2023-05-18T10:13:25;102698.41;;;12.38;44.92
79534;BME280;68982;52.160;6.736;2023-05-18T10:15:53;102692.94;;;12.48;44.74
79534;BME280;68982;52.160;6.736;2023-05-18T10:18:28;102683.81;;;12.49;45.41
79534;BME280;68982;52.160;6.736;2023-05-18T10:20:56;102689.63;;;12.80;44.34
79534;BME280;68982;52.160;6.736;2023-05-18T10:23:24;102684.50;;;12.95;44.02
79534;BME280;68982;52.160;6.736;2023-05-18T10:25:51;102681.19;;;13.09;42.97
79534;BME280;68982;52.160;6.736;2023-05-18T10:28:19;102685.19;;;12.97;44.23
79534;BME280;68982;52.160;6.736;2023-05-18T10:30:50;102687.69;;;13.16;43.02
79534;BME280;68982;52.160;6.736;2023-05-18T10:33:16;102685.84;;;13.25;43.34
79534;BME280;68982;52.160;6.736;2023-05-18T10:35:44;102680.69;;;13.32;43.00
79534;BME280;68982;52.160;6.736;2023-05-18T10:38:09;102675.44;;;13.30;43.23
79534;BME280;68982;52.160;6.736;2023-05-18T10:40:35;102683.56;;;13.30;42.88
79534;BME280;68982;52.160;6.736;2023-05-18T10:43:02;102669.72;;;13.41;42.93
79534;BME280;68982;52.160;6.736;2023-05-18T10:45:32;102673.44;;;13.40;43.24
79534;BME280;68982;52.160;6.736;2023-05-18T10:47:58;102673.34;;;13.50;41.05
79534;BME280;68982;52.160;6.736;2023-05-18T10:50:25;102664.25;;;13.67;42.38
79534;BME280;68982;52.160;6.736;2023-05-18T10:52:50;102673.06;;;13.70;42.26
79534;BME280;68982;52.160;6.736;2023-05-18T10:55:17;102663.56;;;13.74;41.82
79534;BME280;68982;52.160;6.736;2023-05-18T10:57:47;102659.22;;;13.89;40.55
79534;BME280;68982;52.160;6.736;2023-05-18T11:00:15;102665.50;;;13.98;39.42
79534;BME280;68982;52.160;6.736;2023-05-18T11:02:41;102672.81;;;14.14;41.26
79534;BME280;68982;52.160;6.736;2023-05-18T11:05:08;102665.88;;;14.11;39.50
79534;BME280;68982;52.160;6.736;2023-05-18T11:07:34;102664.38;;;14.17;41.19
79534;BME280;68982;52.160;6.736;2023-05-18T11:10:01;102660.78;;;14.24;40.33
79534;BME280;68982;52.160;6.736;2023-05-18T11:12:27;102657.25;;;14.48;40.55
79534;BME280;68982;52.160;6.736;2023-05-18T11:14:55;102654.91;;;14.62;39.99
79534;BME280;68982;52.160;6.736;2023-05-18T11:17:27;102653.50;;;14.49;40.12
79534;BME280;68982;52.160;6.736;2023-05-18T11:27:49;102638.88;;;15.00;39.60
79534;BME280;68982;52.160;6.736;2023-05-18T11:30:28;102638.72;;;14.93;38.11
79534;BME280;68982;52.160;6.736;2023-05-18T11:35:32;102638.22;;;14.89;40.42
79534;BME280;68982;52.160;6.736;2023-05-18T11:38:06;102622.94;;;14.97;39.09
79534;BME280;68982;52.160;6.736;2023-05-18T11:40:52;102640.88;;;15.14;38.84
79534;BME280;68982;52.160;6.736;2023-05-18T11:43:23;102629.63;;;15.25;38.55
79534;BME280;68982;52.160;6.736;2023-05-18T11:45:56;102631.16;;;15.20;38.75
79534;BME280;68982;52.160;6.736;2023-05-18T11:48:23;102634.19;;;15.25;37.76
79534;BME280;68982;52.160;6.736;2023-05-18T11:50:52;102620.44;;;15.26;38.15
79534;BME280;68982;52.160;6.736;2023-05-18T11:53:17;102632.59;;;15.47;39.15
79534;BME280;68982;52.160;6.736;2023-05-18T11:55:42;102639.38;;;15.43;37.45
79534;BME280;68982;52.160;6.736;2023-05-18T11:58:09;102625.50;;;15.29;38.02
79534;BME280;68982;52.160;6.736;2023-05-18T12:00:35;102630.31;;;15.27;39.34
79534;BME280;68982;52.160;6.736;2023-05-18T12:03:01;102621.47;;;15.25;40.18
79534;BME280;68982;52.160;6.736;2023-05-18T12:05:31;102628.38;;;15.36;39.52
79534;BME280;68982;52.160;6.736;2023-05-18T12:07:58;102613.63;;;15.30;39.87
79534;BME280;68982;52.160;6.736;2023-05-18T12:10:24;102612.84;;;15.53;39.67
79534;BME280;68982;52.160;6.736;2023-05-18T12:12:51;102619.41;;;15.67;39.48
79534;BME280;68982;52.160;6.736;2023-05-18T12:15:20;102611.88;;;15.46;37.55
79534;BME280;68982;52.160;6.736;2023-05-18T12:17:47;102613.06;;;15.43;38.11
79534;BME280;68982;52.160;6.736;2023-05-18T12:20:18;102611.44;;;15.65;37.70
79534;BME280;68982;52.160;6.736;2023-05-18T12:22:48;102607.25;;;15.86;38.85
79534;BME280;68982;52.160;6.736;2023-05-18T12:25:18;102614.16;;;15.97;38.30
79534;BME280;68982;52.160;6.736;2023-05-18T12:27:45;102608.13;;;16.24;36.80
79534;BME280;68982;52.160;6.736;2023-05-18T12:32:38;102600.25;;;16.14;34.80
79534;BME280;68982;52.160;6.736;2023-05-18T12:35:04;102593.38;;;16.42;37.70
79534;BME280;68982;52.160;6.736;2023-05-18T12:37:31;102596.19;;;16.48;37.09
79534;BME280;68982;52.160;6.736;2023-05-18T12:39:56;102595.81;;;16.36;36.10
79534;BME280;68982;52.160;6.736;2023-05-18T12:42:21;102600.81;;;16.48;35.60
79534;BME280;68982;52.160;6.736;2023-05-18T12:44:47;102599.38;;;16.37;35.86
79534;BME280;68982;52.160;6.736;2023-05-18T12:47:15;102586.41;;;16.39;35.86
79534;BME280;68982;52.160;6.736;2023-05-18T12:49:42;102586.63;;;16.52;37.73
79534;BME280;68982;52.160;6.736;2023-05-18T12:52:13;102578.47;;;16.52;36.63
79534;BME280;68982;52.160;6.736;2023-05-18T12:54:48;102578.72;;;16.57;37.67
79534;BME280;68982;52.160;6.736;2023-05-18T12:57:20;102585.97;;;16.50;35.75
79534;BME280;68982;52.160;6.736;2023-05-18T12:59:49;102577.34;;;16.62;36.93
79534;BME280;68982;52.160;6.736;2023-05-18T13:02:33;102590.44;;;16.81;34.75
79534;BME280;68982;52.160;6.736;2023-05-18T13:05:09;102583.13;;;16.82;36.78
79534;BME280;68982;52.160;6.736;2023-05-18T13:07:39;102575.97;;;16.95;36.21
79534;BME280;68982;52.160;6.736;2023-05-18T13:10:09;102571.84;;;16.99;36.59
79534;BME280;68982;52.160;6.736;2023-05-18T13:12:41;102570.94;;;16.69;36.11
79534;BME280;68982;52.160;6.736;2023-05-18T13:15:12;102570.91;;;16.92;35.19
79534;BME280;68982;52.160;6.736;2023-05-18T13:17:38;102566.69;;;16.90;34.80